sensor_id;sensor_type;location;lat;lon;timestamp;temperature;humidity
37956;DHT22;23776;51.592;7.180;2023-06-26T00:01:29;23.30;32.00
37956;DHT22;23776;51.592;7.180;2023-06-26T00:03:59;23.30;99.90
37956;DHT22;23776;51.592;7.180;2023-06-26T00:06:26;23.30;99.90
37956;DHT22;23776;51.592;7.180;2023-06-26T00:08:53;23.20;99.90
37956;DHT22;23776;51.592;7.180;2023-06-26T00:11:19;24.40;99.90
37956;DHT22;23776;51.592;7.180;2023-06-26T00:13:45;23.10;1.00
37956;DHT22;23776;51.592;7.180;2023-06-26T00:16:11;23.00;99.90
37956;DHT22;23776;51.592;7.180;2023-06-26T00:18:36;23.00;99.90
37956;DHT22;23776;51.592;7.180;2023-06-26T00:21:02;22.90;99.90
37956;DHT22;23776;51.592;7.180;2023-06-26T00:23:27;22.80;99.90
37956;DHT22;23776;51.592;7.180;2023-06-26T00:25:53;22.80;99.90
37956;DHT22;23776;51.592;7.180;2023-06-26T00:28:19;22.70;1.00
37956;DHT22;23776;51.592;7.180;2023-06-26T00:30:44;22.70;99.90
37956;DHT22;23776;51.592;7.180;2023-06-26T00:33:10;22.70;99.90
37956;DHT22;23776;51.592;7.180;2023-06-26T00:35:35;22.70;99.90
37956;DHT22;23776;51.592;7.180;2023-06-26T00:38:01;22.70;44.30
37956;DHT22;23776;51.592;7.180;2023-06-26T00:40:27;22.80;1.00
37956;DHT22;23776;51.592;7.180;2023-06-26T00:42:53;22.70;1.00
37956;DHT22;23776;51.592;7.180;2023-06-26T00:45:19;22.70;35.50
37956;DHT22;23776;51.592;7.180;2023-06-26T00:47:44;22.70;53.70
37956;DHT22;23776;51.592;7.180;2023-06-26T00:50:10;22.70;99.90
37956;DHT22;23776;51.592;7.180;2023-06-26T00:52:37;22.70;99.90
37956;DHT22;23776;51.592;7.180;2023-06-26T00:55:03;22.70;1.00
37956;DHT22;23776;51.592;7.180;2023-06-26T00:57:30;22.70;99.90
37956;DHT22;23776;51.592;7.180;2023-06-26T00:59:55;22.60;99.90
37956;DHT22;23776;51.592;7.180;2023-06-26T01:02:21;22.60;14.60
37956;DHT22;23776;51.592;7.180;2023-06-26T01:04:49;22.60;15.40
37956;DHT22;23776;51.592;7.180;2023-06-26T01:07:16;22.60;99.90
37956;DHT22;23776;51.592;7.180;2023-06-26T01:09:44;22.60;84.30
37956;DHT22;23776;51.592;7.180;2023-06-26T01:12:10;22.60;99.90
37956;DHT22;23776;51.592;7.180;2023-06-26T01:14:36;22.50;99.90
37956;DHT22;23776;51.592;7.180;2023-06-26T01:17:02;22.40;99.90
37956;DHT22;23776;51.592;7.180;2023-06-26T01:19:29;22.50;1.00
37956;DHT22;23776;51.592;7.180;2023-06-26T01:22:19;22.50;1.00
37956;DHT22;23776;51.592;7.180;2023-06-26T01:28:07;22.40;1.00
37956;DHT22;23776;51.592;7.180;2023-06-26T01:30:34;22.30;99.90
37956;DHT22;23776;51.592;7.180;2023-06-26T01:33:02;25.10;99.90
37956;DHT22;23776;51.592;7.180;2023-06-26T01:35:28;22.20;99.90
37956;DHT22;23776;51.592;7.180;2023-06-26T01:38:17;22.20;1.00
37956;DHT22;23776;51.592;7.180;2023-06-26T01:40:43;22.20;1.00
37956;DHT22;23776;51.592;7.180;2023-06-26T01:43:27;22.00;1.00
37956;DHT22;23776;51.592;7.180;2023-06-26T01:45:58;22.00;1.00
37956;DHT22;23776;51.592;7.180;2023-06-26T01:48:29;22.00;1.00
37956;DHT22;23776;51.592;7.180;2023-06-26T01:50:58;21.90;99.90
37956;DHT22;23776;51.592;7.180;2023-06-26T01:53:25;21.90;99.90
37956;DHT22;23776;51.592;7.180;2023-06-26T01:56:08;21.80;99.90
37956;DHT22;23776;51.592;7.180;2023-06-26T01:58:41;21.80;99.90
37956;DHT22;23776;51.592;7.180;2023-06-26T02:01:08;21.80;1.00
37956;DHT22;23776;51.592;7.180;2023-06-26T02:03:34;21.80;99.90
37956;DHT22;23776;51.592;7.180;2023-06-26T02:06:00;21.70;65.50
37956;DHT22;23776;51.592;7.180;2023-06-26T02:08:25;21.70;1.00
37956;DHT22;23776;51.592;7.180;2023-06-26T02:10:51;21.70;1.00
37956;DHT22;23776;51.592;7.180;2023-06-26T02:13:16;21.70;99.90
37956;DHT22;23776;51.592;7.180;2023-06-26T02:15:42;21.70;99.90
37956;DHT22;23776;51.592;7.180;2023-06-26T02:18:07;21.70;99.90
37956;DHT22;23776;51.592;7.180;2023-06-26T02:20:33;21.70;99.90
37956;DHT22;23776;51.592;7.180;2023-06-26T02:22:59;21.70;1.00
37956;DHT22;23776;51.592;7.180;2023-06-26T02:25:24;20.90;99.90
37956;DHT22;23776;51.592;7.180;2023-06-26T02:27:50;21.60;99.90
37956;DHT22;23776;51.592;7.180;2023-06-26T02:30:15;21.60;1.00
37956;DHT22;23776;51.592;7.180;2023-06-26T02:32:41;21.60;99.90
37956;DHT22;23776;51.592;7.180;2023-06-26T02:35:07;21.60;99.90
37956;DHT22;23776;51.592;7.180;2023-06-26T02:37:33;21.60;99.90
37956;DHT22;23776;51.592;7.180;2023-06-26T02:39:58;21.60;99.90
37956;DHT22;23776;51.592;7.180;2023-06-26T02:42:24;21.60;99.90
37956;DHT22;23776;51.592;7.180;2023-06-26T02:44:49;21.50;52.70
37956;DHT22;23776;51.592;7.180;2023-06-26T02:47:15;21.60;99.90
37956;DHT22;23776;51.592;7.180;2023-06-26T02:49:41;21.50;99.90
37956;DHT22;23776;51.592;7.180;2023-06-26T02:52:06;21.40;99.90
37956;DHT22;23776;51.592;7.180;2023-06-26T02:54:32;21.50;99.90
37956;DHT22;23776;51.592;7.180;2023-06-26T02:56:58;21.50;1.00
37956;DHT22;23776;51.592;7.180;2023-06-26T02:59:25;21.40;99.90
37956;DHT22;23776;51.592;7.180;2023-06-26T03:01:51;21.40;99.90
37956;DHT22;23776;51.592;7.180;2023-06-26T03:04:17;21.40;99.90
37956;DHT22;23776;51.592;7.180;2023-06-26T03:06:43;21.40;99.90
37956;DHT22;23776;51.592;7.180;2023-06-26T03:09:09;21.40;1.00
37956;DHT22;23776;51.592;7.180;2023-06-26T03:11:34;21.40;99.90
37956;DHT22;23776;51.592;7.180;2023-06-26T03:14:00;21.30;99.90
37956;DHT22;23776;51.592;7.180;2023-06-26T03:16:25;21.30;99.90
37956;DHT22;23776;51.592;7.180;2023-06-26T03:18:51;21.30;99.90
37956;DHT22;23776;51.592;7.180;2023-06-26T03:21:17;21.30;1.00
37956;DHT22;23776;51.592;7.180;2023-06-26T03:23:42;21.20;1.00
37956;DHT22;23776;51.592;7.180;2023-06-26T03:26:08;21.20;99.90
37956;DHT22;23776;51.592;7.180;2023-06-26T03:28:33;21.20;99.90
37956;DHT22;23776;51.592;7.180;2023-06-26T03:30:59;21.00;1.00
37956;DHT22;23776;51.592;7.180;2023-06-26T03:33:25;21.00;80.40
37956;DHT22;23776;51.592;7.180;2023-06-26T03:35:50;21.00;1.00
37956;DHT22;23776;51.592;7.180;2023-06-26T03:38:16;21.00;1.00
37956;DHT22;23776;51.592;7.180;2023-06-26T03:40:41;21.10;99.90
37956;DHT22;23776;51.592;7.180;2023-06-26T03:43:07;21.00;99.90
37956;DHT22;23776;51.592;7.180;2023-06-26T03:45:33;21.00;99.90
37956;DHT22;23776;51.592;7.180;2023-06-26T03:47:58;21.10;99.90
37956;DHT22;23776;51.592;7.180;2023-06-26T03:50:24;21.10;99.90
37956;DHT22;23776;51.592;7.180;2023-06-26T03:52:49;21.20;99.90
37956;DHT22;23776;51.592;7.180;2023-06-26T03:55:17;21.30;99.90
37956;DHT22;23776;51.592;7.180;2023-06-26T03:57:43;21.30;99.90
37956;DHT22;23776;51.592;7.180;2023-06-26T04:00:09;21.40;99.90
37956;DHT22;23776;51.592;7.180;2023-06-26T04:02:36;21.40;99.90
37956;DHT22;23776;51.592;7.180;2023-06-26T04:05:02;21.50;99.90
37956;DHT22;23776;51.592;7.180;2023-06-26T04:07:29;21.50;99.90
37956;DHT22;23776;51.592;7.180;2023-06-26T04:09:56;21.40;12.70
37956;DHT22;23776;51.592;7.180;2023-06-26T04:12:22;21.50;82.30
37956;DHT22;23776;51.592;7.180;2023-06-26T04:14:48;21.50;1.00
37956;DHT22;23776;51.592;7.180;2023-06-26T04:17:13;21.50;1.00
37956;DHT22;23776;51.592;7.180;2023-06-26T04:19:39;21.60;99.90
37956;DHT22;23776;51.592;7.180;2023-06-26T04:22:05;21.60;90.40
37956;DHT22;23776;51.592;7.180;2023-06-26T04:24:30;21.70;68.30
37956;DHT22;23776;51.592;7.180;2023-06-26T04:26:56;21.70;67.80
37956;DHT22;23776;51.592;7.180;2023-06-26T04:29:23;21.80;82.70
37956;DHT22;23776;51.592;7.180;2023-06-26T04:31:51;21.80;81.60
37956;DHT22;23776;51.592;7.180;2023-06-26T04:34:17;21.90;99.90
37956;DHT22;23776;51.592;7.180;2023-06-26T04:36:42;21.90;99.90
37956;DHT22;23776;51.592;7.180;2023-06-26T04:39:11;22.00;96.70
37956;DHT22;23776;51.592;7.180;2023-06-26T04:41:37;22.00;99.90
37956;DHT22;23776;51.592;7.180;2023-06-26T04:44:03;22.00;99.90
37956;DHT22;23776;51.592;7.180;2023-06-26T04:46:28;22.00;99.90
37956;DHT22;23776;51.592;7.180;2023-06-26T04:48:54;22.10;99.90
37956;DHT22;23776;51.592;7.180;2023-06-26T04:51:19;22.00;99.90
37956;DHT22;23776;51.592;7.180;2023-06-26T04:53:46;22.00;99.90
37956;DHT22;23776;51.592;7.180;2023-06-26T04:56:11;22.00;99.90
37956;DHT22;23776;51.592;7.180;2023-06-26T04:58:37;22.00;99.90
37956;DHT22;23776;51.592;7.180;2023-06-26T05:01:03;22.00;99.90
37956;DHT22;23776;51.592;7.180;2023-06-26T05:03:32;22.00;99.90
37956;DHT22;23776;51.592;7.180;2023-06-26T05:05:57;21.90;99.90
37956;DHT22;23776;51.592;7.180;2023-06-26T05:08:24;21.90;99.90
37956;DHT22;23776;51.592;7.180;2023-06-26T05:10:52;22.00;99.90
37956;DHT22;23776;51.592;7.180;2023-06-26T05:13:19;22.10;99.90
37956;DHT22;23776;51.592;7.180;2023-06-26T05:15:46;22.10;99.90
37956;DHT22;23776;51.592;7.180;2023-06-26T05:18:12;22.10;99.90
37956;DHT22;23776;51.592;7.180;2023-06-26T05:20:38;22.20;99.90
37956;DHT22;23776;51.592;7.180;2023-06-26T05:23:04;22.30;99.90
37956;DHT22;23776;51.592;7.180;2023-06-26T05:25:30;22.10;99.90
37956;DHT22;23776;51.592;7.180;2023-06-26T05:27:57;22.00;99.90
37956;DHT22;23776;51.592;7.180;2023-06-26T05:30:24;22.00;99.90
37956;DHT22;23776;51.592;7.180;2023-06-26T05:32:53;22.00;99.90
37956;DHT22;23776;51.592;7.180;2023-06-26T05:35:22;21.90;99.90
37956;DHT22;23776;51.592;7.180;2023-06-26T05:37:49;21.90;99.90
37956;DHT22;23776;51.592;7.180;2023-06-26T05:40:16;22.00;99.90
37956;DHT22;23776;51.592;7.180;2023-06-26T05:42:42;22.00;99.90
37956;DHT22;23776;51.592;7.180;2023-06-26T05:45:09;22.10;99.90
37956;DHT22;23776;51.592;7.180;2023-06-26T05:47:35;22.30;95.30
37956;DHT22;23776;51.592;7.180;2023-06-26T05:50:01;22.30;95.50
37956;DHT22;23776;51.592;7.180;2023-06-26T05:52:28;22.40;1.00
37956;DHT22;23776;51.592;7.180;2023-06-26T05:54:55;22.50;1.00
37956;DHT22;23776;51.592;7.180;2023-06-26T05:57:24;22.60;1.00
37956;DHT22;23776;51.592;7.180;2023-06-26T05:59:51;22.70;1.00
37956;DHT22;23776;51.592;7.180;2023-06-26T06:02:17;22.60;1.00
37956;DHT22;23776;51.592;7.180;2023-06-26T06:04:42;22.20;1.00
37956;DHT22;23776;51.592;7.180;2023-06-26T06:07:08;22.10;1.00
37956;DHT22;23776;51.592;7.180;2023-06-26T06:09:33;22.00;13.40
37956;DHT22;23776;51.592;7.180;2023-06-26T06:11:59;22.00;20.20
37956;DHT22;23776;51.592;7.180;2023-06-26T06:14:27;22.10;13.10
37956;DHT22;23776;51.592;7.180;2023-06-26T06:16:52;23.10;1.00
37956;DHT22;23776;51.592;7.180;2023-06-26T06:19:18;22.30;1.00
37956;DHT22;23776;51.592;7.180;2023-06-26T06:21:43;22.50;1.00
37956;DHT22;23776;51.592;7.180;2023-06-26T06:24:09;22.80;1.00
37956;DHT22;23776;51.592;7.180;2023-06-26T06:26:35;22.80;99.90
37956;DHT22;23776;51.592;7.180;2023-06-26T06:29:01;22.80;99.90
37956;DHT22;23776;51.592;7.180;2023-06-26T06:31:26;22.80;1.00
37956;DHT22;23776;51.592;7.180;2023-06-26T06:33:54;22.60;99.90
37956;DHT22;23776;51.592;7.180;2023-06-26T06:36:20;22.60;99.90
37956;DHT22;23776;51.592;7.180;2023-06-26T06:38:45;22.60;99.90
37956;DHT22;23776;51.592;7.180;2023-06-26T06:41:11;22.60;1.00
37956;DHT22;23776;51.592;7.180;2023-06-26T06:43:38;22.60;1.00
37956;DHT22;23776;51.592;7.180;2023-06-26T06:46:04;22.50;99.90
37956;DHT22;23776;51.592;7.180;2023-06-26T06:48:30;22.40;1.00
37956;DHT22;23776;51.592;7.180;2023-06-26T06:50:56;22.30;1.00
37956;DHT22;23776;51.592;7.180;2023-06-26T06:53:21;22.30;1.00
37956;DHT22;23776;51.592;7.180;2023-06-26T06:55:48;22.20;15.80
37956;DHT22;23776;51.592;7.180;2023-06-26T06:58:14;22.10;1.00
37956;DHT22;23776;51.592;7.180;2023-06-26T07:00:42;21.80;95.90
37956;DHT22;23776;51.592;7.180;2023-06-26T07:03:07;21.70;99.90
37956;DHT22;23776;51.592;7.180;2023-06-26T07:05:33;21.80;99.90
37956;DHT22;23776;51.592;7.180;2023-06-26T07:07:58;21.80;99.90
37956;DHT22;23776;51.592;7.180;2023-06-26T07:10:24;21.80;1.00
37956;DHT22;23776;51.592;7.180;2023-06-26T07:12:49;21.80;99.90
37956;DHT22;23776;51.592;7.180;2023-06-26T07:15:16;21.80;1.00
37956;DHT22;23776;51.592;7.180;2023-06-26T07:17:42;21.80;1.00
37956;DHT22;23776;51.592;7.180;2023-06-26T07:20:07;22.10;1.00
37956;DHT22;23776;51.592;7.180;2023-06-26T07:22:35;22.20;99.90
37956;DHT22;23776;51.592;7.180;2023-06-26T07:25:00;22.50;99.90
37956;DHT22;23776;51.592;7.180;2023-06-26T07:27:26;22.50;99.90
37956;DHT22;23776;51.592;7.180;2023-06-26T07:29:52;22.60;99.90
37956;DHT22;23776;51.592;7.180;2023-06-26T07:32:17;22.60;99.90
37956;DHT22;23776;51.592;7.180;2023-06-26T07:34:43;22.60;99.90
37956;DHT22;23776;51.592;7.180;2023-06-26T07:37:08;22.70;99.90
37956;DHT22;23776;51.592;7.180;2023-06-26T07:39:34;22.80;99.90
37956;DHT22;23776;51.592;7.180;2023-06-26T07:41:59;22.80;99.90
37956;DHT22;23776;51.592;7.180;2023-06-26T07:44:25;22.90;25.20
37956;DHT22;23776;51.592;7.180;2023-06-26T07:46:51;22.90;73.20
37956;DHT22;23776;51.592;7.180;2023-06-26T07:49:17;22.80;99.90
37956;DHT22;23776;51.592;7.180;2023-06-26T07:51:42;22.90;53.20
37956;DHT22;23776;51.592;7.180;2023-06-26T07:54:08;23.00;25.90
37956;DHT22;23776;51.592;7.180;2023-06-26T07:59:18;23.20;21.60
37956;DHT22;23776;51.592;7.180;2023-06-26T08:01:44;23.20;1.00
37956;DHT22;23776;51.592;7.180;2023-06-26T08:04:09;23.40;1.00
37956;DHT22;23776;51.592;7.180;2023-06-26T08:06:36;23.40;1.00
37956;DHT22;23776;51.592;7.180;2023-06-26T08:09:08;23.40;1.00
37956;DHT22;23776;51.592;7.180;2023-06-26T08:11:34;23.20;99.90
37956;DHT22;23776;51.592;7.180;2023-06-26T08:14:00;23.20;1.00
37956;DHT22;23776;51.592;7.180;2023-06-26T08:16:25;23.10;1.00
37956;DHT22;23776;51.592;7.180;2023-06-26T08:18:51;23.10;1.00
37956;DHT22;23776;51.592;7.180;2023-06-26T08:21:17;23.20;1.00
37956;DHT22;23776;51.592;7.180;2023-06-26T08:23:42;23.20;1.00
37956;DHT22;23776;51.592;7.180;2023-06-26T08:26:08;23.40;99.90
37956;DHT22;23776;51.592;7.180;2023-06-26T08:28:34;23.40;99.90
37956;DHT22;23776;51.592;7.180;2023-06-26T08:30:59;23.50;99.90
37956;DHT22;23776;51.592;7.180;2023-06-26T08:33:25;23.80;99.90
37956;DHT22;23776;51.592;7.180;2023-06-26T08:35:51;23.80;99.90
37956;DHT22;23776;51.592;7.180;2023-06-26T08:38:16;23.70;99.90
37956;DHT22;23776;51.592;7.180;2023-06-26T08:40:42;23.60;99.90
37956;DHT22;23776;51.592;7.180;2023-06-26T08:43:08;23.50;99.90
37956;DHT22;23776;51.592;7.180;2023-06-26T08:45:33;23.70;99.90
37956;DHT22;23776;51.592;7.180;2023-06-26T08:48:00;23.80;99.90
37956;DHT22;23776;51.592;7.180;2023-06-26T08:50:30;24.00;99.90
37956;DHT22;23776;51.592;7.180;2023-06-26T08:53:19;24.20;99.90
37956;DHT22;23776;51.592;7.180;2023-06-26T08:55:48;24.40;99.90
37956;DHT22;23776;51.592;7.180;2023-06-26T08:58:15;24.50;99.90
37956;DHT22;23776;51.592;7.180;2023-06-26T09:00:40;24.30;51.40
37956;DHT22;23776;51.592;7.180;2023-06-26T09:03:07;24.30;60.80
37956;DHT22;23776;51.592;7.180;2023-06-26T09:05:33;24.30;51.00
37956;DHT22;23776;51.592;7.180;2023-06-26T09:07:58;24.40;83.10
37956;DHT22;23776;51.592;7.180;2023-06-26T09:10:24;24.50;60.60
37956;DHT22;23776;51.592;7.180;2023-06-26T09:12:50;24.60;3.30
37956;DHT22;23776;51.592;7.180;2023-06-26T09:15:19;24.40;1.00
37956;DHT22;23776;51.592;7.180;2023-06-26T09:17:45;24.30;1.00
37956;DHT22;23776;51.592;7.180;2023-06-26T09:20:12;24.30;1.00
37956;DHT22;23776;51.592;7.180;2023-06-26T09:22:41;24.20;1.00
37956;DHT22;23776;51.592;7.180;2023-06-26T09:25:07;24.20;1.00
37956;DHT22;23776;51.592;7.180;2023-06-26T09:27:34;24.20;1.00
37956;DHT22;23776;51.592;7.180;2023-06-26T09:30:02;24.30;1.00
37956;DHT22;23776;51.592;7.180;2023-06-26T09:32:28;24.40;1.00
37956;DHT22;23776;51.592;7.180;2023-06-26T09:34:54;24.60;1.00
37956;DHT22;23776;51.592;7.180;2023-06-26T09:37:23;24.60;1.00
37956;DHT22;23776;51.592;7.180;2023-06-26T09:39:51;24.80;1.00
37956;DHT22;23776;51.592;7.180;2023-06-26T09:42:17;25.00;1.00
37956;DHT22;23776;51.592;7.180;2023-06-26T09:44:47;24.70;1.00
37956;DHT22;23776;51.592;7.180;2023-06-26T09:47:16;24.60;1.00
37956;DHT22;23776;51.592;7.180;2023-06-26T09:49:42;24.40;99.90
37956;DHT22;23776;51.592;7.180;2023-06-26T09:52:08;24.40;99.90
37956;DHT22;23776;51.592;7.180;2023-06-26T09:54:34;24.50;99.90
37956;DHT22;23776;51.592;7.180;2023-06-26T09:57:08;24.50;99.90
37956;DHT22;23776;51.592;7.180;2023-06-26T09:59:34;24.70;99.90
37956;DHT22;23776;51.592;7.180;2023-06-26T10:02:00;24.90;99.90
37956;DHT22;23776;51.592;7.180;2023-06-26T10:04:26;24.90;99.90
37956;DHT22;23776;51.592;7.180;2023-06-26T10:06:55;24.90;99.90
37956;DHT22;23776;51.592;7.180;2023-06-26T10:09:22;25.00;99.90
37956;DHT22;23776;51.592;7.180;2023-06-26T10:12:06;25.10;99.90
37956;DHT22;23776;51.592;7.180;2023-06-26T10:14:36;24.90;99.90
37956;DHT22;23776;51.592;7.180;2023-06-26T10:17:04;24.80;99.90
37956;DHT22;23776;51.592;7.180;2023-06-26T10:19:32;24.60;99.90
37956;DHT22;23776;51.592;7.180;2023-06-26T10:21:59;24.50;99.90
37956;DHT22;23776;51.592;7.180;2023-06-26T10:24:26;24.80;99.90
37956;DHT22;23776;51.592;7.180;2023-06-26T10:26:59;24.80;99.90
37956;DHT22;23776;51.592;7.180;2023-06-26T10:29:26;25.00;99.90
37956;DHT22;23776;51.592;7.180;2023-06-26T10:31:56;25.20;99.90
37956;DHT22;23776;51.592;7.180;2023-06-26T10:34:22;25.70;99.90
37956;DHT22;23776;51.592;7.180;2023-06-26T10:37:01;25.70;99.90
37956;DHT22;23776;51.592;7.180;2023-06-26T10:39:53;25.90;99.90
37956;DHT22;23776;51.592;7.180;2023-06-26T10:42:38;25.80;99.90
37956;DHT22;23776;51.592;7.180;2023-06-26T10:45:20;25.90;99.90
37956;DHT22;23776;51.592;7.180;2023-06-26T10:47:48;25.80;99.90
37956;DHT22;23776;51.592;7.180;2023-06-26T10:50:23;25.90;99.90
37956;DHT22;23776;51.592;7.180;2023-06-26T10:55:49;26.30;99.90
37956;DHT22;23776;51.592;7.180;2023-06-26T11:03:41;26.20;99.90
37956;DHT22;23776;51.592;7.180;2023-06-26T11:06:18;25.90;99.90
37956;DHT22;23776;51.592;7.180;2023-06-26T11:08:52;25.90;99.90
37956;DHT22;23776;51.592;7.180;2023-06-26T11:11:22;25.50;99.90
37956;DHT22;23776;51.592;7.180;2023-06-26T11:14:07;25.20;99.90
37956;DHT22;23776;51.592;7.180;2023-06-26T11:16:34;25.10;99.90
37956;DHT22;23776;51.592;7.180;2023-06-26T11:19:00;25.00;99.90
37956;DHT22;23776;51.592;7.180;2023-06-26T11:21:26;25.10;99.90
37956;DHT22;23776;51.592;7.180;2023-06-26T11:23:53;25.10;99.90
37956;DHT22;23776;51.592;7.180;2023-06-26T11:26:23;25.20;99.90
37956;DHT22;23776;51.592;7.180;2023-06-26T11:31:28;25.00;99.90
37956;DHT22;23776;51.592;7.180;2023-06-26T11:33:56;25.40;99.90
37956;DHT22;23776;51.592;7.180;2023-06-26T11:36:25;25.50;99.90
37956;DHT22;23776;51.592;7.180;2023-06-26T11:39:02;25.50;99.90
37956;DHT22;23776;51.592;7.180;2023-06-26T11:41:35;25.70;99.90
37956;DHT22;23776;51.592;7.180;2023-06-26T11:44:03;25.60;99.90
37956;DHT22;23776;51.592;7.180;2023-06-26T11:46:29;25.60;99.90
37956;DHT22;23776;51.592;7.180;2023-06-26T11:48:55;25.90;99.90
37956;DHT22;23776;51.592;7.180;2023-06-26T11:51:21;25.90;99.90
37956;DHT22;23776;51.592;7.180;2023-06-26T11:53:47;25.20;99.90
37956;DHT22;23776;51.592;7.180;2023-06-26T11:56:15;25.90;99.90
37956;DHT22;23776;51.592;7.180;2023-06-26T11:59:04;25.60;99.90
37956;DHT22;23776;51.592;7.180;2023-06-26T12:01:41;25.70;99.90
37956;DHT22;23776;51.592;7.180;2023-06-26T12:04:11;25.80;99.90
37956;DHT22;23776;51.592;7.180;2023-06-26T12:06:39;25.80;99.90
37956;DHT22;23776;51.592;7.180;2023-06-26T12:09:07;25.90;99.90
37956;DHT22;23776;51.592;7.180;2023-06-26T12:11:35;26.10;99.90
37956;DHT22;23776;51.592;7.180;2023-06-26T12:14:02;26.50;95.20
37956;DHT22;23776;51.592;7.180;2023-06-26T12:16:29;26.50;99.40
37956;DHT22;23776;51.592;7.180;2023-06-26T12:19:14;26.30;90.00
37956;DHT22;23776;51.592;7.180;2023-06-26T12:24:16;26.30;90.10
37956;DHT22;23776;51.592;7.180;2023-06-26T12:26:43;26.40;94.20
37956;DHT22;23776;51.592;7.180;2023-06-26T12:29:11;26.60;91.50
37956;DHT22;23776;51.592;7.180;2023-06-26T12:31:45;26.50;83.30
37956;DHT22;23776;51.592;7.180;2023-06-26T12:34:15;26.70;72.40
37956;DHT22;23776;51.592;7.180;2023-06-26T12:36:45;26.70;81.10
37956;DHT22;23776;51.592;7.180;2023-06-26T12:39:12;26.70;72.80
37956;DHT22;23776;51.592;7.180;2023-06-26T12:41:48;26.90;64.10
37956;DHT22;23776;51.592;7.180;2023-06-26T12:44:28;27.70;53.70
37956;DHT22;23776;51.592;7.180;2023-06-26T12:46:59;27.70;60.30
37956;DHT22;23776;51.592;7.180;2023-06-26T12:49:35;28.00;54.70
37956;DHT22;23776;51.592;7.180;2023-06-26T12:52:04;27.90;41.80
37956;DHT22;23776;51.592;7.180;2023-06-26T12:54:30;27.80;39.30
37956;DHT22;23776;51.592;7.180;2023-06-26T12:56:55;27.80;59.10
37956;DHT22;23776;51.592;7.180;2023-06-26T12:59:21;27.50;44.30
37956;DHT22;23776;51.592;7.180;2023-06-26T13:01:47;27.00;44.30
37956;DHT22;23776;51.592;7.180;2023-06-26T13:04:13;26.80;35.20
37956;DHT22;23776;51.592;7.180;2023-06-26T13:06:39;26.90;44.50
37956;DHT22;23776;51.592;7.180;2023-06-26T13:09:05;27.20;43.40
37956;DHT22;23776;51.592;7.180;2023-06-26T13:11:31;27.40;42.70
37956;DHT22;23776;51.592;7.180;2023-06-26T13:13:57;28.00;35.30
37956;DHT22;23776;51.592;7.180;2023-06-26T13:16:23;28.00;44.00
37956;DHT22;23776;51.592;7.180;2023-06-26T13:18:49;28.40;29.50
37956;DHT22;23776;51.592;7.180;2023-06-26T13:21:15;28.30;39.30
37956;DHT22;23776;51.592;7.180;2023-06-26T13:23:41;28.60;37.20
37956;DHT22;23776;51.592;7.180;2023-06-26T13:26:07;29.10;26.70
37956;DHT22;23776;51.592;7.180;2023-06-26T13:28:33;28.60;33.20
37956;DHT22;23776;51.592;7.180;2023-06-26T13:30:58;28.90;43.90
37956;DHT22;23776;51.592;7.180;2023-06-26T13:33:24;29.70;33.20
37956;DHT22;23776;51.592;7.180;2023-06-26T13:35:53;30.00;26.80
37956;DHT22;23776;51.592;7.180;2023-06-26T13:38:22;29.60;35.10
37956;DHT22;23776;51.592;7.180;2023-06-26T13:40:54;29.20;35.40
37956;DHT22;23776;51.592;7.180;2023-06-26T13:43:22;28.00;34.40
37956;DHT22;23776;51.592;7.180;2023-06-26T13:45:48;28.10;25.80
37956;DHT22;23776;51.592;7.180;2023-06-26T13:48:14;28.80;36.40
37956;DHT22;23776;51.592;7.180;2023-06-26T13:50:39;29.90;30.10
37956;DHT22;23776;51.592;7.180;2023-06-26T13:53:05;30.60;32.90
37956;DHT22;23776;51.592;7.180;2023-06-26T13:55:32;29.80;24.90
37956;DHT22;23776;51.592;7.180;2023-06-26T13:57:58;29.30;31.10
37956;DHT22;23776;51.592;7.180;2023-06-26T14:00:24;30.50;24.50
37956;DHT22;23776;51.592;7.180;2023-06-26T14:02:51;30.60;31.00
37956;DHT22;23776;51.592;7.180;2023-06-26T14:05:17;31.30;19.90
37956;DHT22;23776;51.592;7.180;2023-06-26T14:07:44;31.40;19.50
37956;DHT22;23776;51.592;7.180;2023-06-26T14:10:10;31.80;36.90
37956;DHT22;23776;51.592;7.180;2023-06-26T14:12:36;31.70;25.60
37956;DHT22;23776;51.592;7.180;2023-06-26T14:15:02;31.00;18.10
37956;DHT22;23776;51.592;7.180;2023-06-26T14:17:28;30.50;24.00
37956;DHT22;23776;51.592;7.180;2023-06-26T14:19:54;29.90;23.50
37956;DHT22;23776;51.592;7.180;2023-06-26T14:22:20;29.10;23.40
37956;DHT22;23776;51.592;7.180;2023-06-26T14:24:46;28.60;16.20
37956;DHT22;23776;51.592;7.180;2023-06-26T14:27:12;28.50;23.40
37956;DHT22;23776;51.592;7.180;2023-06-26T14:29:37;27.80;22.30
37956;DHT22;23776;51.592;7.180;2023-06-26T14:32:03;27.30;22.20
37956;DHT22;23776;51.592;7.180;2023-06-26T14:34:29;27.70;16.40
37956;DHT22;23776;51.592;7.180;2023-06-26T14:36:55;27.90;23.80
37956;DHT22;23776;51.592;7.180;2023-06-26T14:39:21;28.20;32.80
37956;DHT22;23776;51.592;7.180;2023-06-26T14:41:47;28.10;22.80
37956;DHT22;23776;51.592;7.180;2023-06-26T14:44:13;28.40;17.20
37956;DHT22;23776;51.592;7.180;2023-06-26T14:46:39;28.40;23.40
37956;DHT22;23776;51.592;7.180;2023-06-26T14:49:05;28.50;23.50
37956;DHT22;23776;51.592;7.180;2023-06-26T14:51:30;28.10;22.00
37956;DHT22;23776;51.592;7.180;2023-06-26T14:53:56;29.20;16.50
37956;DHT22;23776;51.592;7.180;2023-06-26T14:56:22;29.30;14.20
37956;DHT22;23776;51.592;7.180;2023-06-26T14:58:47;29.20;20.50
37956;DHT22;23776;51.592;7.180;2023-06-26T15:01:13;29.40;20.00
37956;DHT22;23776;51.592;7.180;2023-06-26T15:03:45;29.30;13.80
37956;DHT22;23776;51.592;7.180;2023-06-26T15:06:11;29.20;14.20
37956;DHT22;23776;51.592;7.180;2023-06-26T15:08:37;28.60;13.20
37956;DHT22;23776;51.592;7.180;2023-06-26T15:11:02;28.60;20.30
37956;DHT22;23776;51.592;7.180;2023-06-26T15:13:31;28.00;19.30
37956;DHT22;23776;51.592;7.180;2023-06-26T15:15:56;28.20;12.70
37956;DHT22;23776;51.592;7.180;2023-06-26T15:18:22;28.20;20.00
37956;DHT22;23776;51.592;7.180;2023-06-26T15:20:47;27.90;19.80
37956;DHT22;23776;51.592;7.180;2023-06-26T15:23:13;27.00;19.20
37956;DHT22;23776;51.592;7.180;2023-06-26T15:25:39;26.20;11.80
37956;DHT22;23776;51.592;7.180;2023-06-26T15:28:05;25.80;19.30
37956;DHT22;23776;51.592;7.180;2023-06-26T15:30:32;25.40;18.90
37956;DHT22;23776;51.592;7.180;2023-06-26T15:32:57;25.20;15.10
37956;DHT22;23776;51.592;7.180;2023-06-26T15:35:23;25.60;15.90
37956;DHT22;23776;51.592;7.180;2023-06-26T15:37:48;25.70;23.40
37956;DHT22;23776;51.592;7.180;2023-06-26T15:40:15;26.30;22.60
37956;DHT22;23776;51.592;7.180;2023-06-26T15:42:50;26.30;21.10
37956;DHT22;23776;51.592;7.180;2023-06-26T15:45:16;25.40;14.00
37956;DHT22;23776;51.592;7.180;2023-06-26T15:47:47;25.20;21.60
37956;DHT22;23776;51.592;7.180;2023-06-26T15:50:13;24.90;21.50
37956;DHT22;23776;51.592;7.180;2023-06-26T15:52:38;24.80;22.30
37956;DHT22;23776;51.592;7.180;2023-06-26T15:55:04;24.70;14.10